createdAt,value
2018-02-08T00:00:42.268Z,68.44
2018-02-08T00:03:12.290Z,68.17
2018-02-08T00:05:41.415Z,68.02
2018-02-08T00:08:10.885Z,68.14
2018-02-08T00:10:54.606Z,67.85
2018-02-08T00:13:23.730Z,67.70
2018-02-08T00:15:55.766Z,67.92
2018-02-08T00:18:25.251Z,68.00
2018-02-08T00:20:55.027Z,67.77
2018-02-08T00:23:27.514Z,68.01
2018-02-08T00:25:56.676Z,67.87
2018-02-08T00:28:25.762Z,67.93
2018-02-08T00:30:55.075Z,67.77
2018-02-08T00:33:24.687Z,67.41
2018-02-08T00:35:54.051Z,67.19
2018-02-08T00:38:22.898Z,67.32
2018-02-08T00:40:51.787Z,67.38
2018-02-08T00:43:23.934Z,67.33
2018-02-08T00:45:54.106Z,67.50
2018-02-08T00:48:23.050Z,67.62
2018-02-08T00:50:52.483Z,67.63
2018-02-08T00:53:21.320Z,67.17
2018-02-08T00:55:50.758Z,66.80
2018-02-08T00:58:19.698Z,66.55
2018-02-08T01:00:48.573Z,66.90
2018-02-08T01:03:17.398Z,66.84
2018-02-08T01:05:47.645Z,66.89
2018-02-08T01:08:18.638Z,66.81
2018-02-08T01:10:47.662Z,66.56
2018-02-08T01:13:16.967Z,66.51
2018-02-08T01:15:45.886Z,66.52
2018-02-08T01:18:14.765Z,66.18
2018-02-08T01:20:43.892Z,66.18
2018-02-08T01:23:12.710Z,65.98
2018-02-08T01:25:41.772Z,66.02
2018-02-08T01:28:11.396Z,66.17
2018-02-08T01:30:40.858Z,66.06
2018-02-08T01:33:09.702Z,65.89
2018-02-08T01:35:39.168Z,66.30
2018-02-08T01:38:08.685Z,66.53
2018-02-08T01:40:37.530Z,66.10
2018-02-08T01:43:06.909Z,66.21
2018-02-08T01:45:36.860Z,66.40
2018-02-08T01:48:05.999Z,66.50
2018-02-08T01:50:35.160Z,66.43
2018-02-08T01:53:06.486Z,66.52
2018-02-08T01:55:35.686Z,66.44
2018-02-08T01:58:08.003Z,66.33
2018-02-08T02:00:38.208Z,66.18
2018-02-08T02:03:07.374Z,66.16
2018-02-08T02:05:36.826Z,66.31
2018-02-08T02:08:07.398Z,66.00
2018-02-08T02:10:38.361Z,66.10
2018-02-08T02:13:07.314Z,65.78
2018-02-08T02:15:36.276Z,65.78
2018-02-08T02:18:07.269Z,65.52
2018-02-08T02:20:36.319Z,65.91
2018-02-08T02:23:05.364Z,66.04
2018-02-08T02:25:34.400Z,65.64
2018-02-08T02:28:07.206Z,65.68
2018-02-08T02:30:36.142Z,65.40
2018-02-08T02:33:05.822Z,65.75
2018-02-08T02:35:36.167Z,65.36
2018-02-08T02:38:05.943Z,65.68
2018-02-08T02:40:35.171Z,65.61
2018-02-08T02:43:07.193Z,65.67
2018-02-08T02:45:36.541Z,65.81
2018-02-08T02:48:07.047Z,65.42
2018-02-08T02:50:36.652Z,65.41
2018-02-08T02:53:11.143Z,65.55
2018-02-08T02:55:40.572Z,65.27
2018-02-08T02:58:12.693Z,65.15
2018-02-08T03:00:44.470Z,65.23
2018-02-08T03:03:13.923Z,65.24
2018-02-08T03:05:42.771Z,65.31
2018-02-08T03:08:11.658Z,65.17
2018-02-08T03:10:41.450Z,65.57
2018-02-08T03:13:10.366Z,65.24
2018-02-08T03:15:39.202Z,65.28
2018-02-08T03:18:08.075Z,65.27
2018-02-08T03:20:37.514Z,65.58
2018-02-08T03:23:06.745Z,65.56
2018-02-08T03:25:36.357Z,65.68
2018-02-08T03:28:06.346Z,65.41
2018-02-08T03:30:36.056Z,65.39
2018-02-08T03:33:05.616Z,65.52
2018-02-08T03:35:34.646Z,65.81
2018-02-08T03:38:04.538Z,66.29
2018-02-08T03:40:33.654Z,66.04
2018-02-08T03:43:04.115Z,65.83
2018-02-08T03:45:33.403Z,65.64
2018-02-08T03:48:04.571Z,65.66
2018-02-08T03:50:34.203Z,65.50
2018-02-08T03:53:04.319Z,65.25
2018-02-08T03:55:34.810Z,65.88
2018-02-08T03:58:05.746Z,65.52
2018-02-08T04:00:36.174Z,65.23
2018-02-08T04:03:07.307Z,65.19
2018-02-08T04:05:36.526Z,65.27
2018-02-08T04:08:06.358Z,65.42
2018-02-08T04:10:35.196Z,65.62
2018-02-08T04:13:05.814Z,65.40
2018-02-08T04:15:34.646Z,65.78
2018-02-08T04:18:05.001Z,65.87
2018-02-08T04:20:36.153Z,65.78
2018-02-08T04:23:05.957Z,65.86
2018-02-08T04:25:36.317Z,66.20
2018-02-08T04:28:06.005Z,66.17
2018-02-08T04:30:35.141Z,65.90
2018-02-08T04:33:04.988Z,66.10
2018-02-08T04:35:35.463Z,66.17
2018-02-08T04:38:07.508Z,66.20
2018-02-08T04:40:47.339Z,66.27
2018-02-08T04:43:27.540Z,66.37
2018-02-08T04:46:07.532Z,66.63
2018-02-08T04:48:36.635Z,66.68
2018-02-08T04:51:05.475Z,67.10
2018-02-08T04:53:34.852Z,67.00
2018-02-08T04:56:05.726Z,67.24
2018-02-08T04:58:35.053Z,67.20
2018-02-08T05:01:04.676Z,67.25
2018-02-08T05:03:33.803Z,67.62
2018-02-08T05:06:04.351Z,67.85
2018-02-08T05:08:34.808Z,68.26
2018-02-08T05:11:04.656Z,68.10
2018-02-08T05:13:35.479Z,68.27
2018-02-08T05:16:05.674Z,68.28
2018-02-08T05:18:34.804Z,68.17
2018-02-08T05:21:04.956Z,68.35
2018-02-08T05:23:33.790Z,67.84
2018-02-08T05:26:05.316Z,68.12
2018-02-08T05:28:35.755Z,67.99
2018-02-08T05:31:07.319Z,68.27
2018-02-08T05:33:36.701Z,67.99
2018-02-08T05:36:06.411Z,68.04
2018-02-08T05:38:35.322Z,68.40
2018-02-08T05:41:05.223Z,68.68
2018-02-08T05:43:34.470Z,68.79
2018-02-08T05:46:04.985Z,69.18
2018-02-08T05:48:36.423Z,68.96
2018-02-08T05:51:06.226Z,69.15
2018-02-08T05:53:35.569Z,68.52
2018-02-08T05:56:05.802Z,68.97
2018-02-08T05:58:35.011Z,69.19
2018-02-08T06:01:04.695Z,69.22
2018-02-08T06:03:36.605Z,68.71
2018-02-08T06:06:07.802Z,68.09
2018-02-08T06:08:37.985Z,67.76
2018-02-08T06:11:06.879Z,67.25
2018-02-08T06:13:36.236Z,67.61
2018-02-08T06:16:06.778Z,67.72
2018-02-08T06:18:37.031Z,68.29
2018-02-08T06:21:06.187Z,67.68
2018-02-08T06:23:35.754Z,67.55
2018-02-08T06:26:05.801Z,67.60
2018-02-08T06:28:36.575Z,67.45
2018-02-08T06:33:50.534Z,67.61
2018-02-08T06:36:19.981Z,67.48
2018-02-08T06:38:50.534Z,67.62
2018-02-08T06:41:19.647Z,67.31
2018-02-08T06:43:49.452Z,67.53
2018-02-08T06:46:18.567Z,67.80
2018-02-08T06:48:47.451Z,67.97
2018-02-08T06:51:16.325Z,67.79
2018-02-08T06:53:45.506Z,67.84
2018-02-08T06:56:14.358Z,68.22
2018-02-08T06:58:43.235Z,68.26
2018-02-08T07:01:12.383Z,68.26
2018-02-08T07:03:41.305Z,68.26
2018-02-08T07:06:10.781Z,68.73
2018-02-08T07:08:40.273Z,68.42
2018-02-08T07:11:09.146Z,68.68
2018-02-08T07:17:09.648Z,68.41
2018-02-08T07:19:38.764Z,68.56
2018-02-08T07:22:07.881Z,68.17
2018-02-08T07:24:37.544Z,69.06
2018-02-08T07:27:09.076Z,68.78
2018-02-08T07:29:39.590Z,68.81
2018-02-08T07:32:09.478Z,68.76
2018-02-08T07:34:38.508Z,68.28
2018-02-08T07:37:07.386Z,68.17
2018-02-08T07:39:36.642Z,67.71
2018-02-08T07:42:06.254Z,66.76
2018-02-08T07:44:37.655Z,66.09
2018-02-08T07:47:06.806Z,64.84
2018-02-08T07:49:35.737Z,63.70
2018-02-08T07:52:05.912Z,61.94
2018-02-08T07:54:36.530Z,61.30
2018-02-08T07:57:06.451Z,59.91
2018-02-08T07:59:37.710Z,57.51
2018-02-08T08:02:06.742Z,57.18
2018-02-08T08:04:36.140Z,57.26
2018-02-08T08:07:05.796Z,55.98
2018-02-08T08:09:35.276Z,55.33
2018-02-08T08:12:05.190Z,54.75
2018-02-08T08:14:34.126Z,55.63
2018-02-08T08:17:03.540Z,56.18
2018-02-08T08:19:33.827Z,58.92
2018-02-08T08:22:03.532Z,60.71
2018-02-08T08:24:32.842Z,60.73
2018-02-08T08:27:02.952Z,61.96
2018-02-08T08:29:32.313Z,60.86
2018-02-08T08:32:02.085Z,61.53
2018-02-08T08:34:31.917Z,61.87
2018-02-08T08:37:01.190Z,62.57
2018-02-08T08:39:30.175Z,62.77
2018-02-08T08:41:59.664Z,62.86
2018-02-08T08:44:28.503Z,63.77
2018-02-08T08:46:57.272Z,64.15
2018-02-08T08:49:26.368Z,64.20
2018-02-08T08:51:55.148Z,63.88
2018-02-08T08:54:23.946Z,64.33
2018-02-08T08:56:53.000Z,63.66
2018-02-08T08:59:21.785Z,62.96
2018-02-08T09:01:50.623Z,62.07
2018-02-08T09:04:19.920Z,61.40
2018-02-08T09:06:48.681Z,60.98
2018-02-08T09:09:17.473Z,60.42
2018-02-08T09:11:48.606Z,60.15
2018-02-08T09:14:17.423Z,60.06
2018-02-08T09:16:46.216Z,60.89
2018-02-08T09:19:15.286Z,60.40
2018-02-08T09:21:44.157Z,60.04
2018-02-08T09:24:13.524Z,60.25
2018-02-08T09:26:42.827Z,60.80
2018-02-08T09:29:11.680Z,60.66
2018-02-08T09:31:40.468Z,61.13
2018-02-08T09:34:09.572Z,60.87
2018-02-08T09:36:38.580Z,61.57
2018-02-08T09:39:07.838Z,61.10
2018-02-08T09:41:39.812Z,60.53
2018-02-08T09:44:09.500Z,59.90
2018-02-08T09:46:40.724Z,58.23
2018-02-08T09:49:09.818Z,56.47
2018-02-08T09:51:38.712Z,55.48
2018-02-08T09:54:07.463Z,54.30
2018-02-08T09:56:36.933Z,53.79
2018-02-08T09:59:05.756Z,53.09
2018-02-08T10:01:35.571Z,52.77
2018-02-08T10:04:06.722Z,52.85
2018-02-08T10:06:35.970Z,53.26
2018-02-08T10:09:06.184Z,53.19
2018-02-08T10:11:37.761Z,53.05
2018-02-08T10:14:06.581Z,53.46
2018-02-08T10:16:38.864Z,53.06
2018-02-08T10:19:08.028Z,53.89
2018-02-08T10:21:37.006Z,53.04
2018-02-08T10:24:06.086Z,52.62
2018-02-08T10:26:37.582Z,53.14
2018-02-08T10:29:06.475Z,53.26
2018-02-08T10:31:36.326Z,53.09
2018-02-08T10:34:06.084Z,52.61
2018-02-08T10:36:36.765Z,52.47
2018-02-08T10:39:06.196Z,53.20
2018-02-08T10:41:36.640Z,53.02
2018-02-08T10:44:06.964Z,52.80
2018-02-08T10:46:36.183Z,52.64
2018-02-08T10:49:04.996Z,52.48
2018-02-08T10:51:35.938Z,52.22
2018-02-08T10:54:06.372Z,51.37
2018-02-08T10:56:35.473Z,50.77
2018-02-08T10:59:04.840Z,50.23
2018-02-08T11:01:34.308Z,49.97
2018-02-08T11:06:33.272Z,48.47
2018-02-08T11:09:02.768Z,47.97
2018-02-08T11:11:32.245Z,48.14
2018-02-08T11:16:25.562Z,47.32
2018-02-08T11:18:54.945Z,47.31
2018-02-08T11:21:23.786Z,45.77
2018-02-08T11:23:53.228Z,44.58
2018-02-08T11:26:22.076Z,44.89
2018-02-08T11:28:50.845Z,45.16
2018-02-08T11:31:20.341Z,44.07
2018-02-08T11:33:52.120Z,43.74
2018-02-08T11:36:21.873Z,43.03
2018-02-08T11:38:52.880Z,42.34
2018-02-08T11:41:21.691Z,41.88
2018-02-08T11:43:50.489Z,42.42
2018-02-08T11:46:19.556Z,43.06
2018-02-08T11:48:48.417Z,42.93
2018-02-08T11:51:17.267Z,41.89
2018-02-08T11:53:46.388Z,41.85
2018-02-08T11:56:15.221Z,41.31
2018-02-08T11:58:45.185Z,41.27
2018-02-08T12:01:15.021Z,41.62
2018-02-08T12:03:43.796Z,40.89
2018-02-08T12:06:12.678Z,41.34
2018-02-08T12:08:41.957Z,40.69
2018-02-08T12:11:10.756Z,40.01
2018-02-08T12:13:39.798Z,40.26
2018-02-08T12:16:09.065Z,40.04
2018-02-08T12:18:38.273Z,39.66
2018-02-08T12:21:07.147Z,39.75
2018-02-08T12:23:38.454Z,41.06
2018-02-08T12:26:07.272Z,41.41
2018-02-08T12:28:36.658Z,40.61
2018-02-08T12:31:08.290Z,40.08
2018-02-08T12:33:37.370Z,40.87
2018-02-08T12:36:06.310Z,40.92
2018-02-08T12:38:36.272Z,40.35
2018-02-08T12:41:07.553Z,40.62
2018-02-08T12:43:38.182Z,39.77
2018-02-08T12:46:07.902Z,39.05
2018-02-08T12:48:36.815Z,39.58
2018-02-08T12:51:06.114Z,38.94
2018-02-08T12:53:36.145Z,39.43
2018-02-08T12:56:05.830Z,38.52
2018-02-08T12:58:35.352Z,38.43
2018-02-08T13:01:06.111Z,38.04
2018-02-08T13:03:35.234Z,37.13
2018-02-08T13:06:05.446Z,37.39
2018-02-08T13:08:37.249Z,36.88
2018-02-08T13:11:07.696Z,36.57
2018-02-08T13:13:39.040Z,36.91
2018-02-08T13:16:08.321Z,36.35
2018-02-08T13:18:37.804Z,36.97
2018-02-08T13:21:06.752Z,37.54
2018-02-08T13:23:38.748Z,36.78
2018-02-08T13:26:07.564Z,37.20
2018-02-08T13:28:37.167Z,37.48
2018-02-08T13:31:06.481Z,38.47
2018-02-08T13:33:37.410Z,38.51
2018-02-08T13:36:06.603Z,39.02
2018-02-08T13:38:38.605Z,39.23
2018-02-08T13:41:08.278Z,39.53
2018-02-08T13:43:37.659Z,39.58
2018-02-08T13:46:07.020Z,39.76
2018-02-08T13:48:36.716Z,40.39
2018-02-08T13:51:07.435Z,41.37
2018-02-08T13:53:37.628Z,41.82
2018-02-08T13:56:06.589Z,42.38
2018-02-08T13:58:37.409Z,42.99
2018-02-08T14:01:06.761Z,43.25
2018-02-08T14:03:36.801Z,43.99
2018-02-08T14:06:06.537Z,44.86
2018-02-08T14:08:36.607Z,45.96
2018-02-08T14:11:06.471Z,45.88
2018-02-08T14:13:39.025Z,45.32
2018-02-08T14:16:08.168Z,45.78
2018-02-08T14:18:37.465Z,45.93
2018-02-08T14:21:06.719Z,46.37
2018-02-08T14:23:36.713Z,46.93
2018-02-08T14:26:05.967Z,47.25
2018-02-08T14:28:38.148Z,47.60
2018-02-08T14:31:07.604Z,46.93
2018-02-08T14:33:39.611Z,47.53
2018-02-08T14:36:09.460Z,48.02
2018-02-08T14:38:38.857Z,48.13
2018-02-08T14:41:09.071Z,47.62
2018-02-08T14:43:39.562Z,47.14
2018-02-08T14:46:08.543Z,47.57
2018-02-08T14:48:38.157Z,48.56
2018-02-08T14:51:10.505Z,48.81
2018-02-08T14:53:39.428Z,48.79
2018-02-08T14:56:08.351Z,49.04
2018-02-08T14:58:38.469Z,49.03
2018-02-08T15:01:07.880Z,49.32
2018-02-08T15:03:39.446Z,49.43
2018-02-08T15:06:11.544Z,49.61
2018-02-08T15:08:41.281Z,49.70
2018-02-08T15:11:10.406Z,50.07
2018-02-08T15:13:40.805Z,49.88
2018-02-08T15:16:09.798Z,50.54
2018-02-08T15:18:39.242Z,51.01
2018-02-08T15:21:08.395Z,50.92
2018-02-08T15:23:41.572Z,51.37
2018-02-08T15:26:10.687Z,51.67
2018-02-08T15:28:41.496Z,51.79
2018-02-08T15:31:11.419Z,52.32
2018-02-08T15:33:41.072Z,52.72
2018-02-08T15:36:10.085Z,52.89
2018-02-08T15:38:39.573Z,52.84
2018-02-08T15:41:11.393Z,53.22
2018-02-08T15:43:40.733Z,53.55
2018-02-08T15:46:09.866Z,54.01
2018-02-08T15:48:40.345Z,53.92
2018-02-08T15:51:09.365Z,53.83
2018-02-08T15:53:38.659Z,54.20
2018-02-08T15:56:10.266Z,53.90
2018-02-08T15:58:39.551Z,53.72
2018-02-08T16:01:08.540Z,53.60
2018-02-08T16:03:38.507Z,53.74
2018-02-08T16:06:07.477Z,53.62
2018-02-08T16:08:37.634Z,53.63
2018-02-08T16:13:49.320Z,54.26
2018-02-08T16:16:18.700Z,54.67
2018-02-08T16:18:48.164Z,54.83
2018-02-08T16:21:16.980Z,55.32
2018-02-08T16:23:45.783Z,55.08
2018-02-08T16:26:15.797Z,55.48
2018-02-08T16:28:45.093Z,55.88
2018-02-08T16:31:13.856Z,55.76
2018-02-08T16:33:42.932Z,55.89
2018-02-08T16:36:11.740Z,56.34
2018-02-08T16:38:40.817Z,56.25
2018-02-08T16:41:10.182Z,56.62
2018-02-08T16:43:39.087Z,56.74
2018-02-08T16:46:08.211Z,56.96
2018-02-08T16:48:40.185Z,57.06
2018-02-08T16:51:09.720Z,57.29
2018-02-08T16:53:39.143Z,56.93
2018-02-08T16:56:08.334Z,56.97
2018-02-08T16:58:37.509Z,56.83
2018-02-08T17:01:06.360Z,57.29
2018-02-08T17:03:35.673Z,57.31
2018-02-08T17:06:06.122Z,57.44
2018-02-08T17:08:36.520Z,57.62
2018-02-08T17:11:07.712Z,57.87
2018-02-08T17:13:37.737Z,57.88
2018-02-08T17:16:06.504Z,58.05
2018-02-08T17:18:36.183Z,57.89
2018-02-08T17:21:06.210Z,57.53
2018-02-08T17:23:35.957Z,57.51
2018-02-08T17:26:06.672Z,57.42
2018-02-08T17:28:36.804Z,57.58
2018-02-08T17:31:05.888Z,57.78
2018-02-08T17:33:35.518Z,57.69
2018-02-08T17:36:05.932Z,58.01
2018-02-08T17:38:35.169Z,57.86
2018-02-08T17:41:05.277Z,58.12
2018-02-08T17:43:34.064Z,58.20
2018-02-08T17:46:05.984Z,58.43
2018-02-08T17:48:36.168Z,58.51
2018-02-08T17:51:06.025Z,58.32
2018-02-08T17:53:35.196Z,59.02
2018-02-08T17:56:05.784Z,58.66
2018-02-08T17:58:36.645Z,58.76
2018-02-08T18:01:07.082Z,58.84
2018-02-08T18:03:36.976Z,58.94
2018-02-08T18:06:07.155Z,58.97
2018-02-08T18:08:39.510Z,58.53
2018-02-08T18:11:09.861Z,58.55
2018-02-08T18:13:39.974Z,58.26
2018-02-08T18:16:09.045Z,58.11
2018-02-08T18:18:40.641Z,58.25
2018-02-08T18:21:09.562Z,58.29
2018-02-08T18:23:40.686Z,58.60
2018-02-08T18:26:10.042Z,58.76
2018-02-08T18:28:39.560Z,58.76
2018-02-08T18:31:09.383Z,58.62
2018-02-08T18:33:38.859Z,58.70
2018-02-08T18:36:07.641Z,58.93
2018-02-08T18:38:37.491Z,59.11
2018-02-08T18:41:08.657Z,59.04
2018-02-08T18:43:37.873Z,58.90
2018-02-08T18:46:07.590Z,58.88
2018-02-08T18:48:37.020Z,58.89
2018-02-08T18:51:07.975Z,58.99
2018-02-08T18:53:38.370Z,59.26
2018-02-08T18:56:07.179Z,59.66
2018-02-08T18:58:36.996Z,59.87
2018-02-08T19:01:06.308Z,59.87
2018-02-08T19:03:35.235Z,60.12
2018-02-08T19:06:06.713Z,60.38
2018-02-08T19:08:36.705Z,60.25
2018-02-08T19:11:07.725Z,60.18
2018-02-08T19:13:37.729Z,60.42
2018-02-08T19:16:06.935Z,60.36
2018-02-08T19:18:36.486Z,60.42
2018-02-08T19:21:06.100Z,60.52
2018-02-08T19:23:38.091Z,60.69
2018-02-08T19:26:07.630Z,60.77
2018-02-08T19:28:36.740Z,60.60
2018-02-08T19:31:08.188Z,60.55
2018-02-08T19:33:38.749Z,60.81
2018-02-08T19:36:08.432Z,60.87
2018-02-08T19:38:39.745Z,60.63
2018-02-08T19:41:09.599Z,60.74
2018-02-08T19:43:40.388Z,60.49
2018-02-08T19:46:09.633Z,60.54
2018-02-08T19:48:39.947Z,60.64
2018-02-08T19:51:08.770Z,61.43
2018-02-08T19:53:38.722Z,61.94
2018-02-08T19:56:07.600Z,62.12
2018-02-08T19:58:37.114Z,61.92
2018-02-08T20:01:06.338Z,62.67
2018-02-08T20:03:35.150Z,63.04
2018-02-08T20:06:05.128Z,63.35
2018-02-08T20:08:35.706Z,63.38
2018-02-08T20:11:05.192Z,63.49
2018-02-08T20:13:34.069Z,63.47
2018-02-08T20:16:04.967Z,63.40
2018-02-08T20:18:35.012Z,63.52
2018-02-08T20:21:05.027Z,63.51
2018-02-08T20:23:33.827Z,63.53
2018-02-08T20:26:04.408Z,63.57
2018-02-08T20:28:33.190Z,63.54
2018-02-08T20:31:06.055Z,63.56
2018-02-08T20:33:35.186Z,63.55
2018-02-08T20:36:05.590Z,63.26
2018-02-08T20:38:34.400Z,63.24
2018-02-08T20:41:04.306Z,63.15
2018-02-08T20:43:33.516Z,63.21
2018-02-08T20:46:03.698Z,63.34
2018-02-08T20:48:32.830Z,63.43
2018-02-08T20:51:02.218Z,63.48
2018-02-08T20:53:31.029Z,63.45
2018-02-08T20:56:00.293Z,63.52
2018-02-08T20:58:29.213Z,63.47
2018-02-08T21:00:58.018Z,63.44
2018-02-08T21:03:28.505Z,63.45
2018-02-08T21:05:58.334Z,63.60
2018-02-08T21:08:45.731Z,63.49
2018-02-08T21:11:15.641Z,63.47
2018-02-08T21:13:46.396Z,63.50
2018-02-08T21:18:48.808Z,64.69
2018-02-08T21:21:18.217Z,65.07
2018-02-08T21:23:47.467Z,65.37
2018-02-08T21:26:17.023Z,64.99
2018-02-08T21:28:47.657Z,64.34
2018-02-08T21:31:16.978Z,65.04
2018-02-08T21:33:49.705Z,65.10
2018-02-08T21:36:19.184Z,65.79
2018-02-08T21:38:48.531Z,65.95
2018-02-08T21:41:18.284Z,65.62
2018-02-08T21:43:47.529Z,65.68
2018-02-08T21:46:16.749Z,66.47
2018-02-08T21:48:47.463Z,66.73
2018-02-08T21:51:16.765Z,67.01
2018-02-08T21:53:46.251Z,66.93
2018-02-08T21:56:15.482Z,66.69
2018-02-08T21:58:45.893Z,66.88
2018-02-08T22:01:16.769Z,66.99
2018-02-08T22:03:46.027Z,67.27
2018-02-08T22:06:15.748Z,67.28
2018-02-08T22:08:45.220Z,67.13
2018-02-08T22:11:14.444Z,67.12
2018-02-08T22:13:44.219Z,67.04
2018-02-08T22:16:13.455Z,67.01
2018-02-08T22:18:44.063Z,66.57
2018-02-08T22:21:13.630Z,66.88
2018-02-08T22:23:43.089Z,67.35
2018-02-08T22:26:13.594Z,67.27
2018-02-08T22:28:44.739Z,67.46
2018-02-08T22:31:14.022Z,67.34
2018-02-08T22:33:43.516Z,66.97
2018-02-08T22:36:13.088Z,66.73
2018-02-08T22:38:42.668Z,66.50
2018-02-08T22:41:12.087Z,66.16
2018-02-08T22:43:43.535Z,66.08
2018-02-08T22:46:12.889Z,65.92
2018-02-08T22:48:43.050Z,65.66
2018-02-08T22:51:12.839Z,65.63
2018-02-08T22:53:44.294Z,65.88
2018-02-08T22:56:14.133Z,65.89
2018-02-08T22:58:44.493Z,66.01
2018-02-08T23:01:13.804Z,66.12
2018-02-08T23:03:43.412Z,65.94
2018-02-08T23:06:13.908Z,66.59
2018-02-08T23:08:43.400Z,66.76
2018-02-08T23:11:12.688Z,67.57
2018-02-08T23:13:42.493Z,68.09
2018-02-08T23:16:11.747Z,68.27
2018-02-08T23:18:42.460Z,68.81
2018-02-08T23:21:12.153Z,68.72
2018-02-08T23:23:42.350Z,68.80
2018-02-08T23:26:11.715Z,68.74
2018-02-08T23:28:42.661Z,69.00
2018-02-08T23:31:12.039Z,69.48
2018-02-08T23:33:43.896Z,69.77
2018-02-08T23:36:13.635Z,69.61
2018-02-08T23:38:45.383Z,69.33
2018-02-08T23:41:15.181Z,69.49
2018-02-08T23:43:44.599Z,69.67
2018-02-08T23:46:14.014Z,69.65
2018-02-08T23:48:43.830Z,69.35
2018-02-08T23:51:14.192Z,69.58
2018-02-08T23:53:44.967Z,69.42
2018-02-08T23:56:14.491Z,69.77
2018-02-08T23:58:45.234Z,69.62
